< < Back
Terminal Aerodrome Forecast


Current Version              Previous Versions:   1  2  3  4  5  6  7  8  9  

Terminal Aerodrome Forecast

017
FTUS42 KGSP 241100
TAFHKY
TAF
KHKY 241120Z 2412/2512 00000KT P6SM FEW250
     FM242000 18006KT P6SM SCT250
     FM250200 00000KT P6SM SCT250
     FM250600 14003KT P6SM BKN050
     FM250800 16003KT P6SM BKN014=



Latest METAR

777
SAUS70 KWBC 241700 RRI
MTRHKY
METAR KHKY 241653Z 19007KT 10SM CLR 17/02 A3009 RMK AO2 SLP175
T01720017


USA.gov is the U.S. government's official web portal to all federal, state and local government web resources and services.